Pagina principale
METAR-TAF:

METAR-TAF

Aeroporti :

Lakenheath, Inghilterra

latitudine: 52-25N, longitudine: 000-34E, altezza: 10 m

Osservazione

Il bollettino è stato emesso 29 minuti fa, alle 16:29 UTC
Vento 16 kt da nord-est
Temperature 21°C
Umidità 35%
Pressione 1023 hPa
Visibilità 10 km o più
Cielo sereno

METAR: EGUL 311629Z AUTO 05016KT 9999 CLR 21/05 A3021 RMK AO2 WSHFT 18 SLP233 $

Ora: 17:58 (16:58 UTC)

Previsione

Il bollettino è stato emesso 27 ore e 38 minuti fa, alle 13:20 UTC
Previsione valida dal 30 alle 13 UTC al 31 alle 19 UTC
Vento 12 kt da est
Visibilità 10 km o più
Poco nuvoloso ad un'altezza di 5000 ft
Temporaneamente
dal 31 alle 12 UTC al 31 alle 19 UTC
Vento 12 kt da est con raffiche fino a 22 kt
Visibilità: 0106 m

TAF: EGUL 301320Z 3013/3119 08012KT 9999 FEW050 QNH3020INS TEMPO 3112/3119 10012G22KT TX23/3014Z TN11/3104Z LAST NO AMDS AFT 3013 NEXT 0106

Osservazioni e previsioni meteorologiche di più di 4000 aeroporti (messaggi METAR e TAF).

Le stazioni disponibili sono rappresentate dai dischi gialli e rossi sulla carta.

Puntare il mouse per vedere il nome della stazione.

Clicca sopra per visualizzare le osservazioni e previsioni meteorologiche.

Per cambiare la mappa : fare clic sui pulsanti verdi con una croce nera per ingrandire, il pulsante verde con un trattino per diminuire, o sulla freccia verde per le mappe adiacenti.


METAR-TAF: